createdAt,value
2018-03-15T00:01:15.344Z,66.81
2018-03-15T00:03:42.913Z,66.91
2018-03-15T00:06:10.466Z,66.87
2018-03-15T00:08:38.099Z,67.42
2018-03-15T00:11:05.677Z,67.07
2018-03-15T00:13:33.259Z,67.43
2018-03-15T00:16:00.818Z,67.25
2018-03-15T00:18:28.429Z,67.09
2018-03-15T00:20:56.000Z,67.14
2018-03-15T00:23:23.553Z,67.17
2018-03-15T00:25:51.122Z,67.38
2018-03-15T00:28:18.678Z,67.34
2018-03-15T00:30:46.306Z,67.59
2018-03-15T00:33:14.719Z,67.29
2018-03-15T00:35:42.347Z,67.28
2018-03-15T00:38:09.906Z,67.46
2018-03-15T00:40:37.524Z,67.71
2018-03-15T00:43:05.143Z,67.68
2018-03-15T00:45:32.710Z,67.46
2018-03-15T00:48:00.274Z,67.56
2018-03-15T00:50:27.829Z,68.35
2018-03-15T00:52:55.394Z,67.74
2018-03-15T00:55:23.015Z,67.69
2018-03-15T00:57:50.582Z,68.21
2018-03-15T01:00:18.151Z,67.82
2018-03-15T01:02:45.840Z,68.21
2018-03-15T01:05:13.470Z,68.12
2018-03-15T01:07:41.053Z,68.68
2018-03-15T01:10:08.624Z,68.99
2018-03-15T01:12:36.178Z,69.49
2018-03-15T01:15:03.742Z,69.86
2018-03-15T01:17:31.368Z,69.41
2018-03-15T01:19:58.930Z,69.84
2018-03-15T01:22:26.484Z,69.84
2018-03-15T01:24:54.069Z,70.26
2018-03-15T01:27:21.632Z,70.31
2018-03-15T01:29:49.302Z,70.87
2018-03-15T01:32:16.876Z,71.41
2018-03-15T01:34:44.499Z,71.40
2018-03-15T01:37:12.124Z,71.26
2018-03-15T01:39:39.747Z,72.07
2018-03-15T01:42:07.314Z,72.74
2018-03-15T01:44:34.873Z,73.10
2018-03-15T01:47:02.434Z,73.30
2018-03-15T01:49:30.005Z,73.70
2018-03-15T01:51:57.576Z,74.04
2018-03-15T01:54:25.129Z,74.56
2018-03-15T01:56:52.694Z,74.54
2018-03-15T01:59:20.250Z,74.54
2018-03-15T02:01:47.807Z,74.82
2018-03-15T02:04:15.369Z,75.35
2018-03-15T02:06:42.926Z,75.64
2018-03-15T02:09:10.493Z,75.84
2018-03-15T02:11:38.046Z,75.87
2018-03-15T02:14:05.717Z,75.93
2018-03-15T02:16:33.339Z,76.46
2018-03-15T02:19:00.933Z,76.80
2018-03-15T02:21:28.486Z,76.71
2018-03-15T02:23:56.048Z,76.64
2018-03-15T02:26:23.632Z,76.61
2018-03-15T02:28:51.189Z,76.51
2018-03-15T02:31:18.828Z,76.21
2018-03-15T02:33:46.386Z,76.29
2018-03-15T02:36:14.003Z,76.67
2018-03-15T02:38:41.642Z,76.50
2018-03-15T02:41:09.205Z,76.83
2018-03-15T02:43:36.777Z,77.08
2018-03-15T02:46:04.338Z,77.39
2018-03-15T02:48:31.897Z,77.51
2018-03-15T02:50:59.460Z,78.04
2018-03-15T02:53:27.087Z,78.06
2018-03-15T02:55:54.646Z,78.32
2018-03-15T02:58:22.206Z,78.31
2018-03-15T03:00:49.766Z,78.62
2018-03-15T03:03:17.321Z,78.66
2018-03-15T03:05:44.891Z,78.97
2018-03-15T03:08:12.513Z,79.04
2018-03-15T03:10:40.079Z,79.25
2018-03-15T03:13:07.635Z,79.67
2018-03-15T03:15:35.259Z,79.36
2018-03-15T03:18:02.883Z,79.40
2018-03-15T03:20:30.515Z,79.58
2018-03-15T03:22:58.074Z,79.85
2018-03-15T03:25:25.634Z,79.78
2018-03-15T03:27:53.260Z,79.67
2018-03-15T03:30:20.823Z,79.67
2018-03-15T03:32:48.455Z,79.94
2018-03-15T03:35:16.079Z,79.96
2018-03-15T03:37:43.646Z,80.33
2018-03-15T03:40:11.210Z,80.95
2018-03-15T03:42:38.789Z,81.41
2018-03-15T03:45:06.362Z,81.29
2018-03-15T03:47:33.995Z,81.52
2018-03-15T03:50:01.638Z,81.81
2018-03-15T03:52:29.236Z,82.08
2018-03-15T03:54:56.810Z,82.29
2018-03-15T03:57:24.388Z,82.73
2018-03-15T03:59:52.031Z,82.84
2018-03-15T04:02:19.590Z,82.87
2018-03-15T04:04:47.166Z,82.95
2018-03-15T04:07:14.799Z,83.10
2018-03-15T04:09:42.361Z,83.39
2018-03-15T04:12:09.930Z,83.38
2018-03-15T04:14:37.485Z,83.45
2018-03-15T04:17:05.054Z,83.71
2018-03-15T04:19:32.678Z,83.65
2018-03-15T04:22:00.251Z,83.93
2018-03-15T04:24:27.878Z,83.94
2018-03-15T04:26:55.445Z,84.34
2018-03-15T04:29:23.086Z,84.37
2018-03-15T04:31:50.725Z,84.46
2018-03-15T04:34:18.301Z,84.33
2018-03-15T04:36:45.862Z,84.28
2018-03-15T04:39:13.435Z,84.30
2018-03-15T04:41:41.070Z,84.39
2018-03-15T04:44:08.661Z,84.53
2018-03-15T04:46:36.219Z,84.22
2018-03-15T04:49:03.849Z,83.81
2018-03-15T04:51:31.480Z,83.26
2018-03-15T04:53:59.047Z,82.64
2018-03-15T04:56:26.614Z,82.16
2018-03-15T04:58:54.243Z,81.82
2018-03-15T05:01:21.878Z,81.58
2018-03-15T05:03:49.442Z,80.97
2018-03-15T05:06:17.071Z,80.48
2018-03-15T05:08:44.696Z,79.62
2018-03-15T05:11:12.262Z,79.15
2018-03-15T05:13:39.825Z,78.63
2018-03-15T05:16:07.451Z,78.00
2018-03-15T05:18:35.022Z,77.60
2018-03-15T05:21:02.583Z,76.87
2018-03-15T05:23:30.220Z,76.26
2018-03-15T05:25:57.881Z,75.61
2018-03-15T05:28:25.558Z,74.92
2018-03-15T05:30:53.165Z,73.76
2018-03-15T05:33:20.786Z,73.38
2018-03-15T05:35:48.429Z,72.73
2018-03-15T05:38:15.993Z,72.03
2018-03-15T05:40:43.565Z,71.57
2018-03-15T05:43:11.130Z,71.23
2018-03-15T05:45:38.758Z,68.10
2018-03-15T05:48:06.323Z,65.09
2018-03-15T05:50:33.888Z,61.05
2018-03-15T05:53:01.526Z,58.36
2018-03-15T05:55:29.090Z,56.21
2018-03-15T05:57:56.752Z,55.27
2018-03-15T06:00:24.328Z,54.24
2018-03-15T06:02:51.954Z,53.28
2018-03-15T06:05:19.514Z,52.03
2018-03-15T06:07:47.148Z,52.56
2018-03-15T06:10:14.736Z,52.84
2018-03-15T06:12:42.298Z,53.03
2018-03-15T06:15:09.879Z,53.88
2018-03-15T06:17:37.448Z,53.14
2018-03-15T06:20:05.078Z,52.64
2018-03-15T06:22:32.650Z,52.61
2018-03-15T06:25:00.214Z,54.72
2018-03-15T06:27:27.804Z,54.63
2018-03-15T06:29:55.383Z,55.15
2018-03-15T06:32:23.028Z,56.55
2018-03-15T06:34:50.617Z,57.75
2018-03-15T06:37:18.259Z,56.71
2018-03-15T06:39:45.828Z,58.16
2018-03-15T06:42:13.455Z,58.45
2018-03-15T06:44:41.027Z,58.64
2018-03-15T06:47:08.658Z,59.90
2018-03-15T06:49:36.303Z,59.57
2018-03-15T06:52:03.863Z,59.75
2018-03-15T06:54:31.539Z,58.61
2018-03-15T06:56:59.099Z,58.21
2018-03-15T06:59:26.701Z,58.72
2018-03-15T07:01:54.299Z,56.07
2018-03-15T07:04:21.892Z,55.54
2018-03-15T07:06:49.528Z,57.47
2018-03-15T07:09:17.089Z,57.42
2018-03-15T07:11:44.665Z,57.80
2018-03-15T07:14:12.252Z,58.01
2018-03-15T07:16:39.858Z,58.54
2018-03-15T07:19:07.429Z,58.46
2018-03-15T07:21:35.017Z,58.38
2018-03-15T07:24:02.586Z,58.64
2018-03-15T07:26:30.228Z,58.28
2018-03-15T07:28:57.804Z,57.09
2018-03-15T07:31:25.415Z,57.73
2018-03-15T07:33:53.043Z,59.45
2018-03-15T07:36:20.695Z,56.74
2018-03-15T07:38:48.318Z,58.95
2018-03-15T07:41:15.882Z,58.86
2018-03-15T07:43:43.467Z,57.33
2018-03-15T07:46:11.040Z,57.53
2018-03-15T07:48:38.615Z,56.06
2018-03-15T07:51:06.239Z,57.49
2018-03-15T07:53:33.875Z,57.01
2018-03-15T07:56:01.586Z,57.31
2018-03-15T07:58:29.179Z,56.35
2018-03-15T08:00:56.750Z,56.72
2018-03-15T08:03:24.307Z,56.93
2018-03-15T08:05:51.885Z,56.35
2018-03-15T08:08:19.507Z,55.43
2018-03-15T08:10:47.136Z,55.99
2018-03-15T08:13:14.699Z,55.58
2018-03-15T08:15:42.323Z,55.24
2018-03-15T08:18:09.958Z,54.61
2018-03-15T08:20:37.542Z,55.10
2018-03-15T08:23:05.131Z,53.68
2018-03-15T08:25:32.698Z,54.08
2018-03-15T08:28:00.262Z,54.50
2018-03-15T08:30:27.835Z,54.15
2018-03-15T08:32:55.476Z,53.98
2018-03-15T08:35:23.047Z,54.43
2018-03-15T08:37:50.667Z,52.93
2018-03-15T08:40:18.242Z,53.00
2018-03-15T08:42:45.803Z,52.80
2018-03-15T08:45:13.379Z,53.37
2018-03-15T08:47:41.003Z,53.01
2018-03-15T08:50:08.584Z,52.31
2018-03-15T08:52:36.220Z,52.60
2018-03-15T08:55:03.858Z,53.07
2018-03-15T08:57:31.428Z,52.31
2018-03-15T08:59:59.123Z,50.78
2018-03-15T09:02:26.691Z,50.50
2018-03-15T09:04:54.268Z,51.17
2018-03-15T09:07:21.845Z,51.40
2018-03-15T09:09:49.414Z,50.76
2018-03-15T09:12:17.050Z,50.65
2018-03-15T09:14:44.675Z,50.87
2018-03-15T09:17:12.254Z,50.22
2018-03-15T09:19:39.815Z,51.68
2018-03-15T09:22:07.510Z,50.88
2018-03-15T09:24:35.074Z,51.85
2018-03-15T09:27:02.700Z,51.93
2018-03-15T09:29:30.334Z,50.49
2018-03-15T09:31:57.989Z,51.36
2018-03-15T09:34:25.639Z,51.66
2018-03-15T09:36:53.177Z,50.79
2018-03-15T09:39:20.894Z,47.95
2018-03-15T09:41:48.482Z,49.09
2018-03-15T09:44:16.082Z,49.56
2018-03-15T09:46:43.747Z,48.78
2018-03-15T09:49:11.418Z,49.36
2018-03-15T09:51:39.068Z,49.35
2018-03-15T09:54:06.656Z,48.70
2018-03-15T09:56:34.321Z,48.91
2018-03-15T09:59:01.971Z,49.60
2018-03-15T10:01:29.694Z,49.42
2018-03-15T10:03:57.356Z,49.03
2018-03-15T10:06:25.020Z,47.79
2018-03-15T10:08:52.674Z,48.26
2018-03-15T10:11:20.289Z,47.65
2018-03-15T10:13:47.889Z,46.99
2018-03-15T10:16:15.486Z,46.71
2018-03-15T10:18:43.073Z,46.37
2018-03-15T10:21:10.662Z,46.71
2018-03-15T10:23:38.412Z,46.21
2018-03-15T10:26:06.083Z,46.14
2018-03-15T10:28:33.667Z,47.05
2018-03-15T10:31:01.316Z,47.77
2018-03-15T10:33:34.387Z,47.74
2018-03-15T10:36:01.998Z,46.87
2018-03-15T10:38:29.647Z,44.64
2018-03-15T10:40:57.322Z,44.40
2018-03-15T10:43:24.972Z,44.06
2018-03-15T10:45:52.626Z,42.41
2018-03-15T10:48:20.222Z,41.88
2018-03-15T10:50:47.815Z,42.48
2018-03-15T10:53:15.394Z,42.05
2018-03-15T10:55:43.026Z,40.63
2018-03-15T10:58:10.641Z,40.98
2018-03-15T11:00:43.759Z,41.50
2018-03-15T11:03:17.449Z,40.73
2018-03-15T11:05:46.538Z,39.41
2018-03-15T11:08:24.911Z,37.33
2018-03-15T11:10:52.490Z,36.94
2018-03-15T11:13:20.166Z,38.46
2018-03-15T11:15:47.836Z,38.58
2018-03-15T11:18:15.515Z,38.10
2018-03-15T11:20:43.121Z,37.81
2018-03-15T11:23:10.762Z,37.41
2018-03-15T11:25:38.377Z,37.35
2018-03-15T11:28:06.030Z,36.23
2018-03-15T11:30:33.617Z,36.23
2018-03-15T11:33:01.222Z,37.21
2018-03-15T11:35:28.875Z,34.90
2018-03-15T11:37:56.568Z,34.66
2018-03-15T11:40:24.162Z,35.13
2018-03-15T11:42:51.774Z,35.73
2018-03-15T11:45:19.436Z,34.94
2018-03-15T11:47:47.051Z,36.55
2018-03-15T11:50:14.658Z,39.68
2018-03-15T11:52:42.246Z,39.73
2018-03-15T11:55:09.846Z,40.97
2018-03-15T11:57:37.433Z,39.07
2018-03-15T12:00:05.111Z,39.35
2018-03-15T12:02:32.687Z,38.59
2018-03-15T12:05:00.358Z,39.66
2018-03-15T12:07:27.963Z,40.07
2018-03-15T12:09:55.621Z,41.17
2018-03-15T12:12:23.299Z,41.82
2018-03-15T12:14:50.884Z,39.34
2018-03-15T12:17:18.493Z,40.96
2018-03-15T12:19:46.082Z,41.44
2018-03-15T12:22:13.652Z,41.98
2018-03-15T12:24:41.240Z,41.39
2018-03-15T12:27:08.866Z,41.13
2018-03-15T12:29:36.438Z,40.98
2018-03-15T12:32:04.056Z,39.96
2018-03-15T12:34:31.700Z,38.41
2018-03-15T12:36:59.266Z,36.92
2018-03-15T12:39:26.837Z,38.39
2018-03-15T12:41:54.474Z,39.36
2018-03-15T12:44:22.065Z,41.34
2018-03-15T12:46:49.705Z,41.71
2018-03-15T12:49:17.327Z,42.77
2018-03-15T12:51:44.970Z,43.25
2018-03-15T12:54:12.535Z,44.20
2018-03-15T12:56:40.179Z,44.93
2018-03-15T12:59:07.818Z,45.22
2018-03-15T13:01:35.382Z,45.26
2018-03-15T13:04:03.026Z,45.30
2018-03-15T13:06:30.592Z,44.67
2018-03-15T13:08:58.166Z,46.02
2018-03-15T13:11:25.735Z,45.62
2018-03-15T13:13:53.355Z,45.51
2018-03-15T13:16:20.923Z,46.62
2018-03-15T13:18:48.493Z,46.24
2018-03-15T13:21:16.066Z,46.68
2018-03-15T13:23:43.630Z,47.21
2018-03-15T13:26:11.283Z,46.78
2018-03-15T13:28:38.849Z,48.09
2018-03-15T13:31:06.411Z,47.98
2018-03-15T13:33:33.983Z,47.89
2018-03-15T13:36:01.542Z,48.21
2018-03-15T13:38:29.120Z,47.08
2018-03-15T13:40:56.685Z,47.24
2018-03-15T13:43:24.255Z,47.32
2018-03-15T13:45:51.885Z,46.98
2018-03-15T13:48:19.445Z,47.11
2018-03-15T13:50:47.025Z,48.19
2018-03-15T13:53:14.604Z,47.14
2018-03-15T13:55:42.248Z,47.34
2018-03-15T13:58:09.881Z,47.92
2018-03-15T14:00:37.508Z,46.93
2018-03-15T14:03:05.079Z,46.92
2018-03-15T14:05:32.722Z,47.33
2018-03-15T14:08:00.289Z,47.66
2018-03-15T14:10:27.875Z,47.98
2018-03-15T14:12:55.517Z,48.48
2018-03-15T14:15:23.160Z,48.27
2018-03-15T14:17:50.795Z,48.64
2018-03-15T14:20:18.439Z,49.59
2018-03-15T14:22:46.054Z,48.62
2018-03-15T14:25:13.642Z,48.55
2018-03-15T14:27:41.274Z,48.75
2018-03-15T14:30:08.856Z,49.16
2018-03-15T14:32:36.431Z,49.05
2018-03-15T14:35:04.808Z,49.77
2018-03-15T14:37:32.383Z,50.33
2018-03-15T14:40:00.059Z,49.79
2018-03-15T14:42:27.694Z,50.03
2018-03-15T14:44:55.325Z,49.83
2018-03-15T14:47:22.900Z,50.21
2018-03-15T14:49:50.530Z,50.67
2018-03-15T14:52:18.114Z,49.63
2018-03-15T14:54:45.742Z,50.05
2018-03-15T14:57:13.318Z,49.81
2018-03-15T14:59:40.914Z,50.56
2018-03-15T15:02:08.523Z,50.29
2018-03-15T15:04:36.163Z,51.05
2018-03-15T15:07:03.739Z,51.56
2018-03-15T15:09:31.367Z,51.35
2018-03-15T15:11:59.011Z,51.86
2018-03-15T15:14:26.627Z,52.63
2018-03-15T15:16:54.194Z,53.74
2018-03-15T15:19:21.826Z,53.81
2018-03-15T15:21:49.467Z,54.43
2018-03-15T15:24:17.038Z,53.24
2018-03-15T15:26:44.731Z,53.69
2018-03-15T15:29:12.313Z,53.87
2018-03-15T15:31:39.947Z,53.54
2018-03-15T15:34:07.531Z,54.39
2018-03-15T15:36:35.095Z,54.48
2018-03-15T15:39:02.703Z,54.48
2018-03-15T15:41:30.362Z,54.56
2018-03-15T15:43:57.957Z,54.59
2018-03-15T15:46:25.538Z,53.85
2018-03-15T15:48:53.135Z,54.42
2018-03-15T15:51:20.806Z,53.65
2018-03-15T15:53:48.382Z,54.05
2018-03-15T15:56:15.946Z,54.36
2018-03-15T15:58:43.575Z,55.42
2018-03-15T16:01:11.165Z,55.41
2018-03-15T16:03:38.743Z,56.44
2018-03-15T16:06:06.413Z,57.22
2018-03-15T16:08:33.993Z,57.57
2018-03-15T16:11:01.641Z,58.61
2018-03-15T16:13:29.270Z,59.27
2018-03-15T16:15:56.905Z,59.53
2018-03-15T16:18:24.489Z,59.92
2018-03-15T16:20:52.130Z,60.38
2018-03-15T16:23:19.714Z,60.47
2018-03-15T16:25:47.350Z,60.57
2018-03-15T16:28:14.983Z,61.17
2018-03-15T16:30:42.547Z,61.30
2018-03-15T16:33:10.115Z,61.49
2018-03-15T16:35:37.698Z,63.43
2018-03-15T16:38:05.267Z,62.40
2018-03-15T16:40:32.899Z,62.52
2018-03-15T16:43:00.534Z,63.01
2018-03-15T16:45:28.111Z,63.34
2018-03-15T16:47:55.755Z,63.66
2018-03-15T16:50:23.377Z,64.52
2018-03-15T16:52:50.946Z,64.48
2018-03-15T16:55:18.582Z,64.85
2018-03-15T16:57:46.167Z,65.26
2018-03-15T17:00:13.763Z,65.50
2018-03-15T17:02:41.410Z,65.84
2018-03-15T17:05:08.983Z,66.35
2018-03-15T17:07:36.705Z,67.22
2018-03-15T17:10:04.339Z,67.14
2018-03-15T17:12:31.963Z,67.49
2018-03-15T17:14:59.562Z,67.90
2018-03-15T17:17:27.198Z,67.96
2018-03-15T17:19:54.913Z,68.03
2018-03-15T17:22:22.542Z,68.17
2018-03-15T17:24:50.238Z,68.53
2018-03-15T17:27:17.804Z,69.01
2018-03-15T17:29:45.391Z,69.31
2018-03-15T17:32:12.974Z,69.58
2018-03-15T17:34:40.543Z,69.72
2018-03-15T17:37:08.251Z,69.53
2018-03-15T17:39:35.885Z,69.65
2018-03-15T17:42:03.520Z,69.33
2018-03-15T17:44:31.171Z,69.33
2018-03-15T17:46:58.810Z,69.13
2018-03-15T17:49:26.446Z,68.83
2018-03-15T17:51:54.018Z,68.29
2018-03-15T17:54:21.669Z,67.94
2018-03-15T17:56:49.234Z,67.84
2018-03-15T17:59:16.863Z,67.55
2018-03-15T18:01:44.452Z,67.69
2018-03-15T18:04:12.023Z,67.83
2018-03-15T18:06:39.619Z,68.02
2018-03-15T18:09:07.251Z,67.88
2018-03-15T18:11:34.941Z,67.76
2018-03-15T18:14:02.579Z,68.20
2018-03-15T18:16:32.033Z,68.20
2018-03-15T18:18:59.620Z,68.13
2018-03-15T18:21:27.257Z,67.95
2018-03-15T18:23:54.840Z,67.90
2018-03-15T18:26:22.468Z,68.05
2018-03-15T18:28:50.142Z,68.33
2018-03-15T18:31:17.779Z,68.41
2018-03-15T18:33:47.128Z,68.06
2018-03-15T18:36:14.694Z,68.38
2018-03-15T18:38:43.304Z,68.67
2018-03-15T18:41:10.874Z,68.75
2018-03-15T18:43:38.508Z,69.22
2018-03-15T18:46:06.151Z,68.84
2018-03-15T18:48:33.719Z,68.90
2018-03-15T18:51:02.196Z,68.98
2018-03-15T18:53:29.821Z,68.88
2018-03-15T18:55:58.407Z,68.94
2018-03-15T18:58:26.044Z,68.62
2018-03-15T19:00:53.620Z,68.43
2018-03-15T19:03:21.211Z,68.38
2018-03-15T19:05:48.794Z,68.80
2018-03-15T19:08:17.091Z,68.66
2018-03-15T19:10:44.662Z,68.79
2018-03-15T19:13:12.299Z,68.90
2018-03-15T19:15:39.882Z,68.70
2018-03-15T19:18:07.459Z,68.96
2018-03-15T19:20:35.059Z,69.03
2018-03-15T19:23:02.630Z,68.91
2018-03-15T19:25:30.206Z,68.83
2018-03-15T19:27:57.783Z,68.57
2018-03-15T19:30:25.428Z,68.27
2018-03-15T19:32:53.961Z,68.00
2018-03-15T19:35:21.534Z,67.59
2018-03-15T19:37:49.149Z,67.78
2018-03-15T19:40:16.716Z,67.93
2018-03-15T19:42:44.303Z,68.13
2018-03-15T19:45:11.871Z,68.34
2018-03-15T19:47:39.502Z,68.81
2018-03-15T19:50:08.222Z,69.06
2018-03-15T19:52:35.856Z,69.60
2018-03-15T19:55:03.464Z,70.41
2018-03-15T19:57:31.042Z,70.98
2018-03-15T19:59:58.633Z,71.35
2018-03-15T20:02:26.253Z,72.08
2018-03-15T20:04:53.831Z,72.62
2018-03-15T20:07:21.455Z,72.86
2018-03-15T20:09:49.087Z,72.88
2018-03-15T20:12:16.708Z,72.85
2018-03-15T20:14:44.286Z,72.66
2018-03-15T20:17:11.919Z,72.57
2018-03-15T20:19:39.487Z,72.51
2018-03-15T20:22:07.072Z,71.89
2018-03-15T20:24:34.759Z,70.75
2018-03-15T20:27:02.387Z,70.01
2018-03-15T20:29:29.971Z,69.55
2018-03-15T20:31:57.600Z,70.24
2018-03-15T20:34:25.184Z,71.71
2018-03-15T20:36:52.761Z,72.57
2018-03-15T20:39:26.087Z,71.74
2018-03-15T20:41:53.725Z,71.46
2018-03-15T20:44:21.294Z,71.51
2018-03-15T20:46:54.574Z,71.81
2018-03-15T20:49:22.143Z,71.24
2018-03-15T20:51:49.770Z,70.75
2018-03-15T20:54:17.333Z,71.06
2018-03-15T20:56:44.913Z,71.78
2018-03-15T20:59:12.485Z,71.65
2018-03-15T21:01:40.042Z,71.27
2018-03-15T21:04:07.630Z,72.55
2018-03-15T21:06:35.256Z,72.88
2018-03-15T21:09:02.832Z,72.47
2018-03-15T21:11:30.452Z,70.18
2018-03-15T21:13:58.026Z,70.89
2018-03-15T21:16:25.586Z,71.22
2018-03-15T21:18:53.146Z,71.76
2018-03-15T21:21:20.743Z,71.95
2018-03-15T21:23:48.310Z,72.20
2018-03-15T21:26:15.947Z,72.43
2018-03-15T21:28:43.579Z,72.80
2018-03-15T21:31:11.163Z,73.41
2018-03-15T21:33:38.722Z,73.69
2018-03-15T21:36:06.286Z,74.20
2018-03-15T21:38:33.876Z,74.35
2018-03-15T21:41:01.440Z,74.30
2018-03-15T21:43:29.035Z,74.67
2018-03-15T21:45:56.598Z,75.29
2018-03-15T21:48:24.168Z,75.53
2018-03-15T21:50:51.733Z,75.69
2018-03-15T21:53:19.301Z,76.17
2018-03-15T21:55:46.870Z,76.48
2018-03-15T21:58:14.434Z,76.56
2018-03-15T22:00:42.064Z,77.23
2018-03-15T22:03:09.683Z,77.68
2018-03-15T22:05:37.317Z,77.76
2018-03-15T22:08:04.890Z,78.02
2018-03-15T22:10:32.453Z,78.06
2018-03-15T22:13:00.087Z,78.29
2018-03-15T22:15:27.646Z,78.57
2018-03-15T22:17:55.207Z,78.30
2018-03-15T22:20:22.831Z,78.05
2018-03-15T22:22:50.455Z,77.70
2018-03-15T22:25:18.010Z,76.98
2018-03-15T22:27:45.644Z,76.27
2018-03-15T22:30:13.203Z,75.56
2018-03-15T22:32:40.766Z,75.34
2018-03-15T22:35:08.386Z,75.21
2018-03-15T22:37:35.954Z,75.01
2018-03-15T22:40:03.548Z,75.46
2018-03-15T22:42:31.187Z,75.71
2018-03-15T22:44:58.755Z,75.70
2018-03-15T22:47:26.362Z,75.23
2018-03-15T22:49:53.976Z,74.90
2018-03-15T22:52:21.590Z,74.10
2018-03-15T22:54:49.153Z,73.42
2018-03-15T22:57:16.750Z,73.00
2018-03-15T22:59:44.373Z,72.54
2018-03-15T23:02:11.934Z,72.32
2018-03-15T23:04:39.551Z,72.29
2018-03-15T23:07:07.119Z,72.46
2018-03-15T23:09:34.738Z,72.64
2018-03-15T23:12:02.320Z,72.98
2018-03-15T23:14:29.886Z,73.15
2018-03-15T23:16:57.542Z,73.34
2018-03-15T23:19:25.168Z,73.24
2018-03-15T23:21:52.855Z,73.48
2018-03-15T23:24:20.411Z,74.00
2018-03-15T23:26:47.981Z,74.29
2018-03-15T23:29:15.567Z,74.87
2018-03-15T23:31:43.126Z,75.00
2018-03-15T23:34:10.735Z,75.45
2018-03-15T23:36:38.294Z,76.42
2018-03-15T23:39:05.850Z,76.63
2018-03-15T23:41:33.422Z,77.38
2018-03-15T23:44:00.995Z,77.39
2018-03-15T23:46:28.623Z,77.51
2018-03-15T23:48:56.178Z,77.80
2018-03-15T23:51:23.790Z,78.14
2018-03-15T23:53:51.343Z,78.45
2018-03-15T23:56:18.958Z,78.82
2018-03-15T23:58:46.602Z,78.46
